Strona główna
METAR-TAF:

METAR-TAF

Lotnisko :

Port lotniczy José Martí w Hawanie

Hawana, Kuba

Szerokość geograficzna: 22-59N, Długość geograficzna: 082-24W, wysokość: 59 m

Aktualna obserwacja pogody

Raport powstał 28 minut temu, godzina 12:55 UTC
Wiatr 4 kt od wschód
Temperatura 26°C
Wilgotność 89%
Ciśnienie 1015 hPa
Widzialność: 9000 m

METAR: MUHA 241255Z 09004KT 9000 NSC 26/24 Q1015

czas: 09:23 (13:23 UTC)

Prognoza

Raport powstał 2 godziny i 23 minut temu, godzina 11:00 UTC
Prognoza ważna od 24 godzina 12 UTC do 25 godzina 12 UTC
Wiatr 5 kt od wschód
Widzialność: 9000 m
Mało chmury na wysokości 3000 ft
Przejściowo
od 24 godzina 20 UTC do 24 godzina 23 UTC
Wiatr 5 kt od północny wschód
Przerywane chmury na wysokości 3000 ft
Stopniowe zmiany
od 25 godzina 03 UTC do 25 godzina 05 UTC
Wiatr 5 kt od wschodnio-południowy wschód

TAF: MUHA 241100Z 2412/2512 10005KT 9000 FEW030 TEMPO 2420/2423 05005KT BKN030 BECMG 2503/2505 11005KT

Obserwacja i prognoza pogody dla ponad 4000 lotnisk (raport METAR i TAF).

Dostępne stacje oznaczono żółtymi i czerwonymi punktami na mapie.

Najedź kursorem aby zobaczyć nazwę stacji.

Kliknij aby zobaczyć obserwacje i prognozy pogody.

Aby zmienić mapę: kliknij na zielony przycisk z czarnym krzyżykiem, aby powiększyć; na zielony przycisk z myślnikiem, aby pomniejszyć; na zielone strzałki, aby przejść do map sąsiednich.


METAR-TAF: